sensor_id;sensor_type;location;lat;lon;timestamp;P1;durP1;ratioP1;P2;durP2;ratioP2
81312;SDS011;70780;52.722;5.724;2023-08-17T00:00:45;1.25;;;0.57;;
81312;SDS011;70780;52.722;5.724;2023-08-17T00:03:14;0.85;;;0.60;;
81312;SDS011;70780;52.722;5.724;2023-08-17T00:05:44;1.65;;;0.68;;
81312;SDS011;70780;52.722;5.724;2023-08-17T00:08:16;1.13;;;0.52;;
81312;SDS011;70780;52.722;5.724;2023-08-17T00:10:46;2.47;;;0.73;;
81312;SDS011;70780;52.722;5.724;2023-08-17T00:13:15;0.60;;;0.50;;
81312;SDS011;70780;52.722;5.724;2023-08-17T00:15:44;1.35;;;0.60;;
81312;SDS011;70780;52.722;5.724;2023-08-17T00:18:14;1.40;;;0.50;;
81312;SDS011;70780;52.722;5.724;2023-08-17T00:20:43;1.45;;;0.60;;
81312;SDS011;70780;52.722;5.724;2023-08-17T00:23:13;1.40;;;0.80;;
81312;SDS011;70780;52.722;5.724;2023-08-17T00:25:47;0.93;;;0.52;;
81312;SDS011;70780;52.722;5.724;2023-08-17T00:28:17;1.33;;;0.63;;
81312;SDS011;70780;52.722;5.724;2023-08-17T00:30:46;1.65;;;0.60;;
81312;SDS011;70780;52.722;5.724;2023-08-17T00:33:15;0.98;;;0.60;;
81312;SDS011;70780;52.722;5.724;2023-08-17T10:38:41;1.10;;;0.40;;
81312;SDS011;70780;52.722;5.724;2023-08-17T10:41:11;1.20;;;0.50;;
81312;SDS011;70780;52.722;5.724;2023-08-17T10:43:54;2.88;;;0.60;;
81312;SDS011;70780;52.722;5.724;2023-08-17T10:46:34;2.85;;;0.55;;
81312;SDS011;70780;52.722;5.724;2023-08-17T10:49:06;1.92;;;0.40;;
81312;SDS011;70780;52.722;5.724;2023-08-17T10:52:04;4.25;;;0.65;;
81312;SDS011;70780;52.722;5.724;2023-08-17T10:54:39;1.38;;;0.57;;
81312;SDS011;70780;52.722;5.724;2023-08-17T11:02:58;0.82;;;0.43;;
81312;SDS011;70780;52.722;5.724;2023-08-17T11:05:38;2.55;;;0.57;;
81312;SDS011;70780;52.722;5.724;2023-08-17T11:08:19;4.63;;;0.57;;
81312;SDS011;70780;52.722;5.724;2023-08-17T11:11:02;0.80;;;0.30;;
81312;SDS011;70780;52.722;5.724;2023-08-17T11:13:32;1.13;;;0.47;;
81312;SDS011;70780;52.722;5.724;2023-08-17T11:16:03;2.28;;;0.47;;
81312;SDS011;70780;52.722;5.724;2023-08-17T11:18:34;1.23;;;0.40;;
81312;SDS011;70780;52.722;5.724;2023-08-17T11:21:04;0.90;;;0.52;;
81312;SDS011;70780;52.722;5.724;2023-08-17T11:23:34;1.58;;;0.60;;
81312;SDS011;70780;52.722;5.724;2023-08-17T11:26:08;1.65;;;0.50;;
81312;SDS011;70780;52.722;5.724;2023-08-17T11:28:37;1.50;;;0.40;;
81312;SDS011;70780;52.722;5.724;2023-08-17T11:31:07;2.30;;;0.70;;
81312;SDS011;70780;52.722;5.724;2023-08-17T11:33:38;3.17;;;1.08;;
81312;SDS011;70780;52.722;5.724;2023-08-17T11:36:08;6.32;;;1.50;;
81312;SDS011;70780;52.722;5.724;2023-08-17T11:38:39;5.03;;;1.40;;
81312;SDS011;70780;52.722;5.724;2023-08-17T11:41:11;2.92;;;1.20;;
81312;SDS011;70780;52.722;5.724;2023-08-17T11:46:11;4.50;;;1.30;;
81312;SDS011;70780;52.722;5.724;2023-08-17T11:48:41;2.20;;;0.85;;
81312;SDS011;70780;52.722;5.724;2023-08-17T11:51:10;3.33;;;0.98;;
81312;SDS011;70780;52.722;5.724;2023-08-17T11:53:40;3.97;;;0.80;;
81312;SDS011;70780;52.722;5.724;2023-08-17T11:56:12;3.35;;;1.20;;
81312;SDS011;70780;52.722;5.724;2023-08-17T11:58:42;1.05;;;0.50;;
81312;SDS011;70780;52.722;5.724;2023-08-17T12:01:11;3.78;;;1.10;;
81312;SDS011;70780;52.722;5.724;2023-08-17T12:03:41;1.60;;;0.60;;
81312;SDS011;70780;52.722;5.724;2023-08-17T12:06:11;3.60;;;1.05;;
81312;SDS011;70780;52.722;5.724;2023-08-17T15:18:15;2.03;;;0.85;;
81312;SDS011;70780;52.722;5.724;2023-08-17T15:20:45;1.20;;;0.88;;
81312;SDS011;70780;52.722;5.724;2023-08-17T15:23:14;1.50;;;0.70;;
81312;SDS011;70780;52.722;5.724;2023-08-17T15:25:43;1.42;;;0.63;;
81312;SDS011;70780;52.722;5.724;2023-08-17T15:28:13;2.35;;;0.60;;
81312;SDS011;70780;52.722;5.724;2023-08-17T15:30:42;2.33;;;0.60;;
81312;SDS011;70780;52.722;5.724;2023-08-17T15:33:11;1.40;;;0.60;;
81312;SDS011;70780;52.722;5.724;2023-08-17T15:35:43;1.08;;;0.73;;
81312;SDS011;70780;52.722;5.724;2023-08-17T15:38:12;4.22;;;0.73;;
81312;SDS011;70780;52.722;5.724;2023-08-17T15:40:42;1.90;;;0.88;;
81312;SDS011;70780;52.722;5.724;2023-08-17T15:43:11;1.20;;;0.68;;
81312;SDS011;70780;52.722;5.724;2023-08-17T15:45:40;4.88;;;3.38;;
81312;SDS011;70780;52.722;5.724;2023-08-17T15:48:10;6.28;;;5.45;;
81312;SDS011;70780;52.722;5.724;2023-08-17T15:50:42;12.40;;;7.75;;
81312;SDS011;70780;52.722;5.724;2023-08-17T15:53:11;15.90;;;9.82;;
81312;SDS011;70780;52.722;5.724;2023-08-17T15:55:41;18.70;;;10.57;;
81312;SDS011;70780;52.722;5.724;2023-08-17T15:58:10;17.40;;;10.05;;
81312;SDS011;70780;52.722;5.724;2023-08-17T16:00:39;17.05;;;8.93;;
81312;SDS011;70780;52.722;5.724;2023-08-17T16:03:09;16.52;;;9.55;;
81312;SDS011;70780;52.722;5.724;2023-08-17T16:05:38;17.42;;;9.57;;
81312;SDS011;70780;52.722;5.724;2023-08-17T16:08:10;16.73;;;9.43;;
81312;SDS011;70780;52.722;5.724;2023-08-17T16:10:39;20.92;;;10.32;;
81312;SDS011;70780;52.722;5.724;2023-08-17T16:13:06;17.80;;;10.30;;
81312;SDS011;70780;52.722;5.724;2023-08-17T16:15:35;17.23;;;9.35;;
81312;SDS011;70780;52.722;5.724;2023-08-17T16:18:04;14.63;;;8.75;;
81312;SDS011;70780;52.722;5.724;2023-08-17T16:20:34;16.98;;;10.30;;
81312;SDS011;70780;52.722;5.724;2023-08-17T16:23:03;15.38;;;8.73;;
81312;SDS011;70780;52.722;5.724;2023-08-17T16:25:35;16.05;;;9.48;;
81312;SDS011;70780;52.722;5.724;2023-08-17T16:28:05;13.95;;;8.77;;
81312;SDS011;70780;52.722;5.724;2023-08-17T16:30:34;22.40;;;10.25;;
81312;SDS011;70780;52.722;5.724;2023-08-17T16:33:05;18.88;;;9.88;;
81312;SDS011;70780;52.722;5.724;2023-08-17T16:35:35;19.60;;;10.43;;
81312;SDS011;70780;52.722;5.724;2023-08-17T16:38:05;18.00;;;9.00;;
81312;SDS011;70780;52.722;5.724;2023-08-17T16:40:37;15.48;;;7.95;;
81312;SDS011;70780;52.722;5.724;2023-08-17T16:43:06;19.02;;;9.25;;
81312;SDS011;70780;52.722;5.724;2023-08-17T16:45:35;18.52;;;8.60;;
81312;SDS011;70780;52.722;5.724;2023-08-17T16:48:05;16.08;;;8.73;;
81312;SDS011;70780;52.722;5.724;2023-08-17T16:50:35;19.77;;;8.55;;
81312;SDS011;70780;52.722;5.724;2023-08-17T16:53:04;16.10;;;8.30;;
81312;SDS011;70780;52.722;5.724;2023-08-17T16:55:34;17.50;;;8.85;;
81312;SDS011;70780;52.722;5.724;2023-08-17T16:58:06;17.95;;;8.43;;
81312;SDS011;70780;52.722;5.724;2023-08-17T17:00:36;16.08;;;7.97;;
81312;SDS011;70780;52.722;5.724;2023-08-17T17:03:05;19.33;;;9.07;;
81312;SDS011;70780;52.722;5.724;2023-08-17T17:05:35;16.40;;;7.68;;
81312;SDS011;70780;52.722;5.724;2023-08-17T17:08:04;15.77;;;7.60;;
81312;SDS011;70780;52.722;5.724;2023-08-17T17:10:36;17.17;;;7.68;;
81312;SDS011;70780;52.722;5.724;2023-08-17T17:13:06;19.35;;;8.20;;
81312;SDS011;70780;52.722;5.724;2023-08-17T17:15:35;15.38;;;7.10;;
81312;SDS011;70780;52.722;5.724;2023-08-17T17:18:05;13.32;;;7.05;;
81312;SDS011;70780;52.722;5.724;2023-08-17T17:20:34;16.02;;;7.65;;
81312;SDS011;70780;52.722;5.724;2023-08-17T17:23:04;14.48;;;6.68;;
81312;SDS011;70780;52.722;5.724;2023-08-17T17:25:33;14.98;;;7.07;;
81312;SDS011;70780;52.722;5.724;2023-08-17T17:28:05;12.48;;;6.82;;
81312;SDS011;70780;52.722;5.724;2023-08-17T17:30:35;13.95;;;6.82;;
81312;SDS011;70780;52.722;5.724;2023-08-17T17:33:04;11.10;;;6.10;;
81312;SDS011;70780;52.722;5.724;2023-08-17T17:35:33;14.88;;;7.00;;
81312;SDS011;70780;52.722;5.724;2023-08-17T17:38:03;11.30;;;6.70;;
81312;SDS011;70780;52.722;5.724;2023-08-17T17:40:32;17.85;;;7.10;;
81312;SDS011;70780;52.722;5.724;2023-08-17T17:43:02;12.85;;;6.50;;
81312;SDS011;70780;52.722;5.724;2023-08-17T17:45:34;10.32;;;6.05;;
81312;SDS011;70780;52.722;5.724;2023-08-17T17:48:03;13.25;;;5.97;;
81312;SDS011;70780;52.722;5.724;2023-08-17T17:50:33;12.15;;;6.38;;
81312;SDS011;70780;52.722;5.724;2023-08-17T17:53:02;10.45;;;5.40;;
81312;SDS011;70780;52.722;5.724;2023-08-17T17:55:32;9.27;;;5.07;;
81312;SDS011;70780;52.722;5.724;2023-08-17T17:58:01;13.75;;;6.32;;
81312;SDS011;70780;52.722;5.724;2023-08-17T18:00:34;8.23;;;4.10;;
81312;SDS011;70780;52.722;5.724;2023-08-17T18:03:08;5.35;;;2.60;;
81312;SDS011;70780;52.722;5.724;2023-08-17T18:05:39;5.18;;;2.15;;
81312;SDS011;70780;52.722;5.724;2023-08-17T18:08:09;5.35;;;2.15;;
81312;SDS011;70780;52.722;5.724;2023-08-17T18:10:38;3.25;;;2.10;;
81312;SDS011;70780;52.722;5.724;2023-08-17T18:13:11;5.30;;;2.30;;
81312;SDS011;70780;52.722;5.724;2023-08-17T18:15:40;5.47;;;2.40;;
81312;SDS011;70780;52.722;5.724;2023-08-17T18:18:10;3.83;;;2.25;;
81312;SDS011;70780;52.722;5.724;2023-08-17T18:20:39;3.13;;;2.00;;
81312;SDS011;70780;52.722;5.724;2023-08-17T18:23:09;4.60;;;2.13;;
81312;SDS011;70780;52.722;5.724;2023-08-17T18:25:38;4.03;;;2.03;;
81312;SDS011;70780;52.722;5.724;2023-08-17T18:30:42;2.80;;;1.90;;
81312;SDS011;70780;52.722;5.724;2023-08-17T18:33:12;3.72;;;1.83;;
81312;SDS011;70780;52.722;5.724;2023-08-17T18:35:41;3.15;;;2.03;;
81312;SDS011;70780;52.722;5.724;2023-08-17T18:38:10;2.83;;;2.10;;
81312;SDS011;70780;52.722;5.724;2023-08-17T18:40:43;3.85;;;1.90;;
81312;SDS011;70780;52.722;5.724;2023-08-17T18:43:15;3.35;;;1.95;;
81312;SDS011;70780;52.722;5.724;2023-08-17T18:45:45;2.83;;;1.35;;
81312;SDS011;70780;52.722;5.724;2023-08-17T18:48:14;3.08;;;1.65;;
81312;SDS011;70780;52.722;5.724;2023-08-17T18:50:43;3.63;;;1.65;;
81312;SDS011;70780;52.722;5.724;2023-08-17T18:53:13;3.53;;;1.80;;
81312;SDS011;70780;52.722;5.724;2023-08-17T18:55:42;3.95;;;1.63;;
81312;SDS011;70780;52.722;5.724;2023-08-17T18:58:11;3.22;;;1.80;;
81312;SDS011;70780;52.722;5.724;2023-08-17T19:00:45;2.78;;;1.55;;
81312;SDS011;70780;52.722;5.724;2023-08-17T19:03:14;3.08;;;1.83;;
81312;SDS011;70780;52.722;5.724;2023-08-17T19:05:44;4.65;;;1.88;;
81312;SDS011;70780;52.722;5.724;2023-08-17T19:08:13;2.83;;;1.70;;
81312;SDS011;70780;52.722;5.724;2023-08-17T19:10:42;2.25;;;1.65;;
81312;SDS011;70780;52.722;5.724;2023-08-17T19:13:11;3.15;;;1.40;;
81312;SDS011;70780;52.722;5.724;2023-08-17T19:15:41;2.45;;;1.65;;
81312;SDS011;70780;52.722;5.724;2023-08-17T19:18:13;1.30;;;1.20;;
81312;SDS011;70780;52.722;5.724;2023-08-17T19:20:43;2.08;;;1.40;;
81312;SDS011;70780;52.722;5.724;2023-08-17T19:23:12;2.15;;;1.30;;
81312;SDS011;70780;52.722;5.724;2023-08-17T19:25:41;2.20;;;1.50;;
81312;SDS011;70780;52.722;5.724;2023-08-17T19:28:11;2.08;;;1.20;;
81312;SDS011;70780;52.722;5.724;2023-08-17T19:30:40;2.92;;;1.38;;
81312;SDS011;70780;52.722;5.724;2023-08-17T19:33:09;2.35;;;1.10;;
81312;SDS011;70780;52.722;5.724;2023-08-17T19:35:41;2.45;;;1.20;;
81312;SDS011;70780;52.722;5.724;2023-08-17T19:38:11;2.20;;;1.33;;
81312;SDS011;70780;52.722;5.724;2023-08-17T19:40:40;2.55;;;1.70;;
81312;SDS011;70780;52.722;5.724;2023-08-17T19:43:10;4.20;;;1.90;;
81312;SDS011;70780;52.722;5.724;2023-08-17T19:45:39;3.50;;;1.92;;
81312;SDS011;70780;52.722;5.724;2023-08-17T19:48:09;2.25;;;1.58;;
81312;SDS011;70780;52.722;5.724;2023-08-17T19:50:41;1.55;;;1.27;;
81312;SDS011;70780;52.722;5.724;2023-08-17T19:53:10;1.65;;;1.40;;
81312;SDS011;70780;52.722;5.724;2023-08-17T19:55:39;2.80;;;1.60;;
81312;SDS011;70780;52.722;5.724;2023-08-17T19:58:09;3.55;;;1.40;;
81312;SDS011;70780;52.722;5.724;2023-08-17T20:00:38;2.15;;;1.40;;
81312;SDS011;70780;52.722;5.724;2023-08-17T20:03:08;1.73;;;1.38;;
81312;SDS011;70780;52.722;5.724;2023-08-17T20:05:37;1.60;;;1.20;;
81312;SDS011;70780;52.722;5.724;2023-08-17T20:08:09;2.90;;;1.40;;
81312;SDS011;70780;52.722;5.724;2023-08-17T20:10:39;1.73;;;1.10;;
81312;SDS011;70780;52.722;5.724;2023-08-17T20:13:08;3.35;;;1.90;;
81312;SDS011;70780;52.722;5.724;2023-08-17T20:15:37;1.60;;;1.25;;
81312;SDS011;70780;52.722;5.724;2023-08-17T20:18:07;1.80;;;1.38;;
81312;SDS011;70780;52.722;5.724;2023-08-17T20:20:37;1.83;;;1.30;;
81312;SDS011;70780;52.722;5.724;2023-08-17T20:23:09;1.83;;;1.02;;
81312;SDS011;70780;52.722;5.724;2023-08-17T20:25:38;1.75;;;1.10;;
81312;SDS011;70780;52.722;5.724;2023-08-17T20:28:09;2.03;;;1.00;;
81312;SDS011;70780;52.722;5.724;2023-08-17T20:30:38;1.85;;;1.25;;
81312;SDS011;70780;52.722;5.724;2023-08-17T20:33:08;1.35;;;0.90;;
81312;SDS011;70780;52.722;5.724;2023-08-17T20:35:37;2.08;;;0.80;;
81312;SDS011;70780;52.722;5.724;2023-08-17T20:38:10;2.90;;;0.98;;
81312;SDS011;70780;52.722;5.724;2023-08-17T20:40:40;1.35;;;1.02;;
81312;SDS011;70780;52.722;5.724;2023-08-17T20:43:09;3.60;;;1.02;;
81312;SDS011;70780;52.722;5.724;2023-08-17T20:45:38;4.72;;;1.30;;
81312;SDS011;70780;52.722;5.724;2023-08-17T20:48:09;1.50;;;0.70;;
81312;SDS011;70780;52.722;5.724;2023-08-17T20:50:39;1.00;;;0.88;;
81312;SDS011;70780;52.722;5.724;2023-08-17T20:53:12;1.33;;;0.80;;
81312;SDS011;70780;52.722;5.724;2023-08-17T20:55:42;1.65;;;0.75;;
81312;SDS011;70780;52.722;5.724;2023-08-17T20:58:12;0.82;;;0.82;;
81312;SDS011;70780;52.722;5.724;2023-08-17T21:00:41;1.92;;;0.85;;
81312;SDS011;70780;52.722;5.724;2023-08-17T21:03:11;1.50;;;0.65;;
81312;SDS011;70780;52.722;5.724;2023-08-17T21:05:40;1.17;;;0.60;;
81312;SDS011;70780;52.722;5.724;2023-08-17T21:08:12;1.15;;;0.90;;
81312;SDS011;70780;52.722;5.724;2023-08-17T21:10:41;1.23;;;0.88;;
81312;SDS011;70780;52.722;5.724;2023-08-17T21:13:11;0.73;;;0.60;;
81312;SDS011;70780;52.722;5.724;2023-08-17T21:15:40;0.85;;;0.80;;
81312;SDS011;70780;52.722;5.724;2023-08-17T21:18:09;1.10;;;0.70;;
